Latest Weather Observations for Ocean Reef

IDW60801

Issued at 12:02 pm WST Saturday 7 March 2015 (issued every 30 minutes, with the page automatically refreshed every 10 minutes)

About weather observations | Map of weather stations | Latest weather observations for WA | Other Formats
Station Details ID: 009214 Name: OCEAN REEF Lat: -31.76 Lon: 115.73 Height: 10.0 m
Data from the previous 72 hours. | See also: Recent months for locations in Western Australia
Date/Time
WST
Temp
°C
App
Temp
°C
Dew
Point
Rel
Hum
%
Delta-T
°C
Wind Press
QNH
hPa
Press
MSL
hPa
Rain
since 9 am
mm
Dir
 
Spd
km/h
Gust
km/h
Spd
kts
Gust
kts
07/12:00pm - - - - - NNE 9 17 5 9 - - -
07/11:30am - - - - - SE 11 19 6 10 - - -
07/11:00am - - - - - E 15 24 8 13 - - -
07/10:30am - - - - - E 15 22 8 12 - - -
07/10:00am - - - - - ENE 20 30 11 16 - - -
07/09:30am - - - - - ENE 19 28 10 15 - - -
07/09:00am - - - - - E 19 28 10 15 - - -
07/08:30am - - - - - E 19 32 10 17 - - -
07/08:00am - - - - - ESE 17 20 9 11 - - -
07/07:30am - - - - - ESE 9 13 5 7 - - -
07/07:00am - - - - - ESE 11 15 6 8 - - -
07/06:30am - - - - - ENE 11 17 6 9 - - -
07/06:00am - - - - - SE 11 17 6 9 - - -
07/05:30am - - - - - E 11 17 6 9 - - -
07/05:00am - - - - - E 19 28 10 15 - - -
07/04:30am - - - - - E 19 28 10 15 - - -
07/04:00am - - - - - E 17 26 9 14 - - -
07/03:30am - - - - - E 19 30 10 16 - - -
07/03:00am - - - - - E 17 26 9 14 - - -
07/02:30am - - - - - E 15 20 8 11 - - -
07/02:00am - - - - - ESE 13 17 7 9 - - -
07/01:30am - - - - - ENE 15 19 8 10 - - -
07/01:00am - - - - - E 11 11 6 6 - - -
07/12:30am - - - - - SSE 11 13 6 7 - - -
07/12:00am - - - - - SSE 13 15 7 8 - - -
 
Date/Time
WST
Temp
°C
App
Temp
°C
Dew
Point
Rel
Hum
%
Delta-T
°C
Wind Press
QNH
hPa
Press
MSL
hPa
Rain
since 9 am
mm
Dir
 
Spd
km/h
Gust
km/h
Spd
kts
Gust
kts
06/11:30pm - - - - - SSE 13 15 7 8 - - -
06/11:00pm - - - - - SSE 13 15 7 8 - - -
06/10:30pm - - - - - SSE 15 17 8 9 - - -
06/10:00pm - - - - - SSE 13 15 7 8 - - -
06/09:30pm - - - - - SSE 13 17 7 9 - - -
06/09:00pm - - - - - SSE 17 22 9 12 - - -
06/08:30pm - - - - - S 28 33 15 18 - - -
06/08:00pm - - - - - S 33 41 18 22 - - -
06/07:30pm - - - - - S 35 43 19 23 - - -
06/07:00pm - - - - - S 35 43 19 23 - - -
06/06:30pm - - - - - S 37 46 20 25 - - -
06/06:00pm - - - - - S 35 43 19 23 - - -
06/05:30pm - - - - - S 37 44 20 24 - - -
06/05:00pm - - - - - S 35 43 19 23 - - -
06/04:30pm - - - - - S 39 48 21 26 - - -
06/04:00pm - - - - - S 35 43 19 23 - - -
06/03:30pm - - - - - S 28 37 15 20 - - -
06/03:00pm - - - - - SSW 28 35 15 19 - - -
06/02:30pm - - - - - S 30 35 16 19 - - -
06/02:00pm - - - - - S 30 35 16 19 - - -
06/01:30pm - - - - - SSW 28 35 15 19 - - -
06/01:00pm - - - - - SW 22 32 12 17 - - -
06/12:30pm - - - - - ENE 17 30 9 16 - - -
06/12:00pm - - - - - E 19 33 10 18 - - -
06/11:30am - - - - - E 22 30 12 16 - - -
06/11:00am - - - - - ESE 20 30 11 16 - - -
06/10:30am - - - - - ENE 22 33 12 18 - - -
06/10:00am - - - - - ENE 19 35 10 19 - - -
06/09:30am - - - - - ENE 22 32 12 17 - - -
06/09:00am - - - - - E 19 28 10 15 - - -
06/08:30am - - - - - ENE 17 30 9 16 - - -
06/08:00am - - - - - E 11 17 6 9 - - -
06/07:30am - - - - - E 11 17 6 9 - - -
06/07:00am - - - - - ESE 7 11 4 6 - - -
06/06:30am - - - - - ESE 7 11 4 6 - - -
06/06:00am - - - - - ENE 9 13 5 7 - - -
06/05:30am - - - - - ENE 13 17 7 9 - - -
06/05:00am - - - - - ENE 15 20 8 11 - - -
06/04:30am - - - - - E 13 17 7 9 - - -
06/04:00am - - - - - E 15 19 8 10 - - -
06/03:30am - - - - - E 17 24 9 13 - - -
06/03:00am - - - - - E 13 19 7 10 - - -
06/02:30am - - - - - E 15 20 8 11 - - -
06/02:00am - - - - - E 19 30 10 16 - - -
06/01:30am - - - - - E 17 26 9 14 - - -
06/01:00am - - - - - ESE 17 22 9 12 - - -
06/12:30am - - - - - ESE 17 20 9 11 - - -
06/12:00am - - - - - ESE 15 19 8 10 - - -
 
Date/Time
WST
Temp
°C
App
Temp
°C
Dew
Point
Rel
Hum
%
Delta-T
°C
Wind Press
QNH
hPa
Press
MSL
hPa
Rain
since 9 am
mm
Dir
 
Spd
km/h
Gust
km/h
Spd
kts
Gust
kts
05/11:30pm - - - - - ESE 15 19 8 10 - - -
05/11:00pm - - - - - ESE 15 20 8 11 - - -
05/10:30pm - - - - - ESE 15 22 8 12 - - -
05/10:00pm - - - - - SE 15 19 8 10 - - -
05/09:30pm - - - - - SE 13 17 7 9 - - -
05/09:00pm - - - - - SE 13 15 7 8 - - -
05/08:30pm - - - - - SSE 17 19 9 10 - - -
05/08:00pm - - - - - S 19 26 10 14 - - -
05/07:30pm - - - - - S 20 26 11 14 - - -
05/07:00pm - - - - - S 24 28 13 15 - - -
05/06:30pm - - - - - S 28 32 15 17 - - -
05/06:00pm - - - - - S 26 30 14 16 - - -
05/05:30pm - - - - - S 28 33 15 18 - - -
05/05:00pm - - - - - S 26 30 14 16 - - -
05/04:30pm - - - - - SSW 30 39 16 21 - - -
05/04:00pm - - - - - SSW 24 32 13 17 - - -
05/03:30pm - - - - - E 17 30 9 16 - - -
05/03:00pm - - - - - ENE 17 30 9 16 - - -
05/02:30pm - - - - - E 22 35 12 19 - - -
05/02:00pm - - - - - E 19 35 10 19 - - -
05/01:30pm - - - - - ESE 19 28 10 15 - - -
05/01:00pm - - - - - E 20 32 11 17 - - -
05/12:30pm - - - - - E 24 39 13 21 - - -
05/12:00pm - - - - - ENE 22 33 12 18 - - -
05/11:30am - - - - - E 20 30 11 16 - - -
05/11:00am - - - - - ENE 28 37 15 20 - - -
05/10:30am - - - - - NE 24 33 13 18 - - -
05/10:00am - - - - - ENE 19 32 10 17 - - -
05/09:30am - - - - - ENE 24 39 13 21 - - -
05/09:00am - - - - - E 19 26 10 14 - - -
05/08:30am - - - - - E 22 32 12 17 - - -
05/08:00am - - - - - E 17 30 9 16 - - -
05/07:30am - - - - - ESE 13 19 7 10 - - -
05/07:00am - - - - - ESE 13 17 7 9 - - -
05/06:30am - - - - - ESE 13 20 7 11 - - -
05/06:00am - - - - - SE 11 15 6 8 - - -
05/05:30am - - - - - ESE 13 19 7 10 - - -
05/05:00am - - - - - ESE 17 24 9 13 - - -
05/04:30am - - - - - ESE 15 19 8 10 - - -
05/04:00am - - - - - ESE 15 19 8 10 - - -
05/03:30am - - - - - ESE 19 26 10 14 - - -
05/03:00am - - - - - ESE 20 32 11 17 - - -
05/02:30am - - - - - ESE 22 32 12 17 - - -
05/02:00am - - - - - ESE 20 30 11 16 - - -
05/01:30am - - - - - E 20 32 11 17 - - -
05/01:00am - - - - - E 22 33 12 18 - - -
05/12:30am - - - - - E 22 35 12 19 - - -
05/12:00am - - - - - ESE 22 35 12 19 - - -
 
Date/Time
WST
Temp
°C
App
Temp
°C
Dew
Point
Rel
Hum
%
Delta-T
°C
Wind Press
QNH
hPa
Press
MSL
hPa
Rain
since 9 am
mm
Dir
 
Spd
km/h
Gust
km/h
Spd
kts
Gust
kts
04/11:30pm - - - - - ESE 24 37 13 20 - - -
04/11:00pm - - - - - ESE 20 32 11 17 - - -
04/10:30pm - - - - - ESE 17 26 9 14 - - -
04/10:00pm - - - - - ESE 15 20 8 11 - - -
04/09:30pm - - - - - ESE 15 22 8 12 - - -
04/09:00pm - - - - - SE 9 13 5 7 - - -
04/08:30pm - - - - - SSE 13 17 7 9 - - -
04/08:00pm - - - - - SSE 20 26 11 14 - - -
04/07:30pm - - - - - S 20 28 11 15 - - -
04/07:00pm - - - - - S 30 35 16 19 - - -
04/06:30pm - - - - - S 33 41 18 22 - - -
04/06:00pm - - - - - S 32 41 17 22 - - -
04/05:30pm - - - - - S 33 41 18 22 - - -
04/05:00pm - - - - - S 30 35 16 19 - - -
04/04:30pm - - - - - S 33 44 18 24 - - -
04/04:00pm - - - - - S 33 41 18 22 - - -
04/03:30pm - - - - - S 32 39 17 21 - - -
04/03:00pm - - - - - S 30 37 16 20 - - -
04/02:30pm - - - - - S 28 37 15 20 - - -
04/02:00pm - - - - - SSW 28 35 15 19 - - -
04/01:30pm - - - - - SSW 28 35 15 19 - - -
04/01:00pm - - - - - SSW 20 33 11 18 - - -
04/12:30pm - - - - - E 17 30 9 16 - - -

Other Formats:

Comma delimited format used in spreadsheet applications
http://www.bom.gov.au/fwo/IDW60801/IDW60801.94607.axf

JavaScript Object Notation format (JSON) in row-major order
http://www.bom.gov.au/fwo/IDW60801/IDW60801.94607.json